Time;durP1;ratioP1;P1;durP2;ratioP2;P2;SDS_P1;SDS_P2;PMS_P1;PMS_P2;Temp;Humidity;BMP_temperature;BMP_pressure;BME280_temperature;BME280_humidity;BME280_pressure;Samples;Min_cycle;Max_cycle;Signal;HPM_P1;HPM_P2
2023/08/22 00:01:30;;;;;;;57.27;2.80;;;;;;;;;;5051869;28;20495;-69
2023/08/22 00:03:57;;;;;;;60.30;3.17;;;;;;;;;;5051861;28;20476;-68
2023/08/22 00:06:24;;;;;;;57.80;3.20;;;;;;;;;;5051620;28;20448;-68
2023/08/22 00:08:52;;;;;;;57.47;2.90;;;;;;;;;;5051732;28;20460;-68
2023/08/22 00:11:19;;;;;;;56.77;2.80;;;;;;;;;;5051465;28;20444;-68
2023/08/22 00:13:47;;;;;;;58.47;2.77;;;;;;;;;;5051033;28;20474;-68
2023/08/22 00:16:16;;;;;;;59.00;3.47;;;;;;;;;;5051535;28;20448;-68
2023/08/22 00:18:43;;;;;;;57.30;2.70;;;;;;;;;;5051256;28;20449;-67
2023/08/22 00:21:10;;;;;;;58.87;4.03;;;;;;;;;;5050880;28;20875;-67
2023/08/22 00:23:38;;;;;;;57.10;3.30;;;;;;;;;;5051029;28;20516;-67
2023/08/22 00:26:05;;;;;;;57.80;3.30;;;;;;;;;;5051147;28;20865;-68
2023/08/22 00:28:32;;;;;;;57.10;2.63;;;;;;;;;;5051289;28;20878;-67
2023/08/22 00:30:59;;;;;;;58.43;3.57;;;;;;;;;;5051315;28;20440;-67
2023/08/22 00:33:27;;;;;;;57.10;2.97;;;;;;;;;;5050966;28;20478;-68
2023/08/22 00:35:54;;;;;;;57.47;3.27;;;;;;;;;;5051104;28;20451;-68
2023/08/22 00:38:22;;;;;;;59.50;3.60;;;;;;;;;;5051079;28;20555;-69
2023/08/22 00:40:49;;;;;;;58.80;4.07;;;;;;;;;;5051161;28;20487;-68
2023/08/22 00:43:16;;;;;;;57.07;2.47;;;;;;;;;;5050821;28;20444;-68
2023/08/22 00:45:44;;;;;;;57.50;3.60;;;;;;;;;;5051002;28;20444;-68
2023/08/22 00:48:11;;;;;;;57.47;3.00;;;;;;;;;;5051184;28;20557;-68
2023/08/22 00:50:40;;;;;;;57.40;3.10;;;;;;;;;;5050932;28;20437;-68
2023/08/22 00:53:07;;;;;;;60.17;3.57;;;;;;;;;;5050737;28;20451;-68
2023/08/22 00:55:34;;;;;;;58.13;4.00;;;;;;;;;;5050721;28;20750;-68
2023/08/22 00:58:01;;;;;;;58.03;3.83;;;;;;;;;;5050856;28;20448;-67
2023/08/22 01:00:29;;;;;;;57.47;3.10;;;;;;;;;;5050907;28;20827;-68
2023/08/22 01:02:56;;;;;;;57.37;3.27;;;;;;;;;;5050625;28;20480;-68
2023/08/22 01:05:24;;;;;;;57.17;2.77;;;;;;;;;;5050642;28;20471;-68
2023/08/22 01:07:54;;;;;;;57.10;2.90;;;;;;;;;;5050636;28;20472;-68
2023/08/22 01:10:25;;;;;;;58.07;4.57;;;;;;;;;;5051197;28;20446;-68
2023/08/22 01:12:54;;;;;;;58.20;3.27;;;;;;;;;;5050590;28;20912;-69
2023/08/22 01:15:24;;;;;;;58.30;4.70;;;;;;;;;;5050960;28;20487;-68
2023/08/22 01:17:52;;;;;;;57.23;3.03;;;;;;;;;;5050926;28;20457;-68
2023/08/22 01:20:20;;;;;;;58.10;3.17;;;;;;;;;;5050587;28;20451;-68
2023/08/22 01:22:49;;;;;;;57.13;2.90;;;;;;;;;;5050435;28;20988;-68
2023/08/22 01:25:16;;;;;;;57.80;2.50;;;;;;;;;;5050770;28;21000;-68
2023/08/22 01:27:47;;;;;;;56.97;2.63;;;;;;;;;;5050920;28;20563;-68
2023/08/22 01:30:16;;;;;;;60.57;4.70;;;;;;;;;;5051085;28;20448;-68
2023/08/22 01:32:49;;;;;;;58.67;3.37;;;;;;;;;;5054422;28;20483;-68
2023/08/22 01:35:20;;;;;;;57.47;2.70;;;;;;;;;;5054657;28;20464;-68
2023/08/22 01:37:48;;;;;;;57.50;3.10;;;;;;;;;;5054595;28;20861;-69
2023/08/22 01:40:16;;;;;;;59.27;4.30;;;;;;;;;;5054487;28;20894;-68
2023/08/22 01:42:43;;;;;;;57.37;3.53;;;;;;;;;;5052996;28;20479;-68
2023/08/22 01:45:11;;;;;;;57.67;3.13;;;;;;;;;;5054524;28;20900;-68
2023/08/22 01:47:38;;;;;;;57.50;3.20;;;;;;;;;;5054430;28;20894;-68
2023/08/22 01:50:05;;;;;;;56.83;2.93;;;;;;;;;;5053003;28;20479;-67
2023/08/22 01:52:32;;;;;;;58.70;4.20;;;;;;;;;;5053994;28;20994;-68
2023/08/22 01:55:01;;;;;;;61.13;3.87;;;;;;;;;;5054041;28;20478;-68
2023/08/22 01:57:28;;;;;;;57.57;3.13;;;;;;;;;;5053884;28;20474;-67
2023/08/22 01:59:55;;;;;;;57.40;3.37;;;;;;;;;;5054258;28;20448;-67
2023/08/22 02:02:22;;;;;;;57.50;3.13;;;;;;;;;;5053588;28;20494;-68
2023/08/22 02:04:49;;;;;;;57.83;3.17;;;;;;;;;;5054005;28;20472;-67
2023/08/22 02:07:16;;;;;;;57.93;3.13;;;;;;;;;;5053840;28;20443;-68
2023/08/22 02:09:43;;;;;;;58.40;4.37;;;;;;;;;;5053683;28;20449;-68
2023/08/22 02:12:12;;;;;;;57.10;2.73;;;;;;;;;;5053776;28;20441;-68
2023/08/22 02:14:39;;;;;;;57.97;3.70;;;;;;;;;;5053942;28;20559;-68
2023/08/22 02:17:06;;;;;;;57.47;3.67;;;;;;;;;;5054026;28;20450;-68
2023/08/22 02:19:33;;;;;;;57.20;3.27;;;;;;;;;;5053824;28;20828;-68
2023/08/22 02:22:00;;;;;;;57.03;3.53;;;;;;;;;;5053790;28;20484;-67
2023/08/22 02:24:27;;;;;;;57.30;2.83;;;;;;;;;;5053394;28;20472;-68
2023/08/22 02:26:55;;;;;;;57.00;2.77;;;;;;;;;;5053684;28;20448;-68
2023/08/22 02:29:23;;;;;;;58.73;3.40;;;;;;;;;;5053582;28;20444;-67
2023/08/22 02:31:50;;;;;;;57.57;3.83;;;;;;;;;;5053429;28;20456;-68
2023/08/22 02:34:17;;;;;;;57.60;2.97;;;;;;;;;;5053721;28;20471;-68
2023/08/22 02:36:44;;;;;;;59.93;4.17;;;;;;;;;;5053337;28;20498;-68
2023/08/22 02:39:12;;;;;;;56.87;2.83;;;;;;;;;;5053624;28;20448;-68
2023/08/22 02:41:40;;;;;;;58.17;3.30;;;;;;;;;;5052850;28;20480;-68
2023/08/22 02:44:07;;;;;;;57.40;3.27;;;;;;;;;;5052533;28;20468;-68
2023/08/22 02:46:36;;;;;;;59.40;3.63;;;;;;;;;;5053095;28;20931;-68
2023/08/22 02:49:03;;;;;;;57.57;3.20;;;;;;;;;;5053086;28;20963;-68
2023/08/22 02:51:31;;;;;;;59.77;3.60;;;;;;;;;;5052988;28;20968;-68
2023/08/22 02:53:58;;;;;;;56.70;2.50;;;;;;;;;;5052930;28;20464;-68
2023/08/22 02:56:25;;;;;;;57.80;3.20;;;;;;;;;;5053132;28;20444;-68
2023/08/22 02:58:52;;;;;;;57.17;2.57;;;;;;;;;;5053086;28;20776;-68
2023/08/22 03:01:19;;;;;;;57.77;3.50;;;;;;;;;;5052828;28;20476;-68
2023/08/22 03:03:50;;;;;;;57.80;3.70;;;;;;;;;;5052547;28;20462;-68
2023/08/22 03:06:17;;;;;;;57.47;2.87;;;;;;;;;;5052989;28;20453;-68
2023/08/22 03:08:44;;;;;;;57.40;3.10;;;;;;;;;;5052887;28;20444;-68
2023/08/22 03:11:11;;;;;;;57.13;3.07;;;;;;;;;;5052831;28;20528;-68
2023/08/22 03:13:38;;;;;;;56.93;2.80;;;;;;;;;;5052503;28;20551;-68
2023/08/22 03:16:05;;;;;;;56.67;3.03;;;;;;;;;;5052540;28;20453;-68
2023/08/22 03:18:33;;;;;;;57.00;3.03;;;;;;;;;;5052483;28;20444;-68
2023/08/22 03:21:01;;;;;;;57.00;3.10;;;;;;;;;;5052498;28;20448;-68
2023/08/22 03:23:28;;;;;;;57.50;3.27;;;;;;;;;;5052222;28;20528;-68
2023/08/22 03:25:59;;;;;;;55.90;2.90;;;;;;;;;;5052523;28;20771;-68
2023/08/22 03:28:26;;;;;;;56.97;2.80;;;;;;;;;;5052507;28;20446;-68
2023/08/22 03:30:57;;;;;;;58.20;3.20;;;;;;;;;;5052255;28;21051;-68
2023/08/22 03:33:24;;;;;;;56.37;2.87;;;;;;;;;;5052107;28;20432;-68
2023/08/22 03:35:52;;;;;;;57.53;3.83;;;;;;;;;;5052401;28;20451;-68
2023/08/22 03:38:21;;;;;;;57.00;3.00;;;;;;;;;;5052069;28;20458;-68
2023/08/22 03:40:48;;;;;;;58.03;3.80;;;;;;;;;;5052326;28;20436;-68
2023/08/22 03:43:16;;;;;;;60.30;3.80;;;;;;;;;;5051643;28;21003;-68
2023/08/22 03:45:43;;;;;;;56.90;2.33;;;;;;;;;;5051958;28;20475;-68
2023/08/22 03:48:10;;;;;;;57.17;2.73;;;;;;;;;;5052253;28;20825;-68
2023/08/22 03:50:39;;;;;;;57.07;3.30;;;;;;;;;;5052087;28;20440;-68
2023/08/22 03:53:06;;;;;;;57.10;3.10;;;;;;;;;;5051645;28;20485;-68
2023/08/22 03:55:35;;;;;;;59.13;3.33;;;;;;;;;;5051596;28;20543;-68
2023/08/22 03:58:02;;;;;;;57.20;3.03;;;;;;;;;;5051667;28;20455;-68
2023/08/22 04:00:30;;;;;;;58.20;4.20;;;;;;;;;;5052124;28;20440;-68
2023/08/22 04:02:57;;;;;;;56.37;2.83;;;;;;;;;;5051517;28;20491;-68
2023/08/22 04:05:24;;;;;;;57.77;3.73;;;;;;;;;;5051752;28;20459;-68
2023/08/22 04:07:51;;;;;;;57.10;2.80;;;;;;;;;;5051755;28;20448;-68
2023/08/22 04:10:19;;;;;;;56.93;3.27;;;;;;;;;;5051587;28;20443;-68
2023/08/22 04:12:47;;;;;;;57.20;3.10;;;;;;;;;;5051215;28;20467;-68
2023/08/22 04:15:14;;;;;;;59.17;3.70;;;;;;;;;;5051648;28;20468;-68
2023/08/22 04:17:42;;;;;;;58.60;3.73;;;;;;;;;;5051474;28;20444;-68
2023/08/22 04:20:09;;;;;;;57.50;3.27;;;;;;;;;;5051533;28;20490;-68
2023/08/22 04:22:36;;;;;;;57.20;3.00;;;;;;;;;;5051165;28;20491;-68
2023/08/22 04:25:04;;;;;;;58.10;3.63;;;;;;;;;;5051114;28;21014;-69
2023/08/22 04:27:31;;;;;;;59.10;3.73;;;;;;;;;;5051436;28;20470;-68
2023/08/22 04:30:00;;;;;;;56.60;2.63;;;;;;;;;;5051640;28;20440;-68
2023/08/22 04:32:27;;;;;;;56.83;2.60;;;;;;;;;;5051093;28;20451;-68
2023/08/22 04:34:54;;;;;;;57.00;3.07;;;;;;;;;;5051191;28;20464;-68
2023/08/22 04:37:21;;;;;;;57.50;3.10;;;;;;;;;;5050863;28;20462;-68
2023/08/22 04:39:48;;;;;;;56.90;2.80;;;;;;;;;;5050959;28;21219;-68
2023/08/22 04:42:15;;;;;;;57.20;2.80;;;;;;;;;;5050989;28;20488;-68
2023/08/22 04:44:43;;;;;;;57.40;3.33;;;;;;;;;;5051048;28;20464;-68
2023/08/22 04:47:11;;;;;;;58.30;2.83;;;;;;;;;;5051051;28;20450;-68
2023/08/22 04:49:38;;;;;;;56.53;2.67;;;;;;;;;;5051451;28;20455;-68
2023/08/22 04:52:06;;;;;;;57.37;3.03;;;;;;;;;;5050639;28;20988;-68
2023/08/22 04:54:33;;;;;;;57.50;3.47;;;;;;;;;;5050861;28;20472;-69
2023/08/22 04:57:00;;;;;;;57.30;3.23;;;;;;;;;;5051179;28;20828;-69
2023/08/22 04:59:27;;;;;;;58.27;3.77;;;;;;;;;;5051126;28;20446;-69
2023/08/22 05:01:54;;;;;;;58.20;2.90;;;;;;;;;;5050630;28;20484;-69
2023/08/22 05:04:23;;;;;;;56.90;2.90;;;;;;;;;;5050815;28;20813;-68
2023/08/22 05:06:50;;;;;;;57.67;3.13;;;;;;;;;;5050044;28;20444;-69
2023/08/22 05:09:17;;;;;;;57.97;3.20;;;;;;;;;;5050985;28;20444;-69
2023/08/22 05:11:44;;;;;;;56.93;2.60;;;;;;;;;;5050465;28;20456;-69
2023/08/22 05:14:12;;;;;;;56.80;2.60;;;;;;;;;;5050725;28;20470;-69
2023/08/22 05:16:39;;;;;;;57.30;2.70;;;;;;;;;;5050806;28;20447;-70
2023/08/22 05:19:07;;;;;;;56.40;2.40;;;;;;;;;;5050717;28;20790;-69
2023/08/22 05:21:35;;;;;;;56.87;2.67;;;;;;;;;;5050309;28;20484;-69
2023/08/22 05:24:02;;;;;;;57.57;3.40;;;;;;;;;;5050642;28;20837;-68
2023/08/22 05:26:29;;;;;;;68.03;2.80;;;;;;;;;;5050657;28;20483;-68
2023/08/22 05:28:56;;;;;;;58.63;3.80;;;;;;;;;;5050521;28;20440;-69
2023/08/22 05:31:24;;;;;;;57.53;3.50;;;;;;;;;;5050688;28;20447;-69
2023/08/22 05:33:51;;;;;;;58.80;3.77;;;;;;;;;;5050193;28;20460;-69
2023/08/22 05:36:18;;;;;;;56.77;4.00;;;;;;;;;;5050621;28;20452;-69
2023/08/22 05:38:47;;;;;;;56.30;2.57;;;;;;;;;;5050418;28;20964;-69
2023/08/22 05:41:14;;;;;;;57.17;3.07;;;;;;;;;;5050793;28;20448;-69
2023/08/22 05:43:41;;;;;;;57.00;2.50;;;;;;;;;;5050194;28;20494;-68
2023/08/22 05:46:09;;;;;;;57.47;3.30;;;;;;;;;;5050447;28;20448;-68
2023/08/22 05:48:36;;;;;;;57.57;3.90;;;;;;;;;;5050729;28;20459;-68
2023/08/22 05:51:03;;;;;;;58.77;3.27;;;;;;;;;;5050506;28;20823;-68
2023/08/22 05:53:30;;;;;;;59.30;3.87;;;;;;;;;;5050115;28;20460;-68
2023/08/22 05:55:59;;;;;;;57.47;3.07;;;;;;;;;;5050217;28;20954;-68
2023/08/22 05:58:26;;;;;;;57.87;3.20;;;;;;;;;;5050264;28;20483;-68
2023/08/22 06:00:53;;;;;;;56.90;3.03;;;;;;;;;;5050087;28;20518;-68
2023/08/22 06:03:20;;;;;;;58.77;4.10;;;;;;;;;;5049901;28;20484;-68
2023/08/22 06:05:47;;;;;;;57.37;2.93;;;;;;;;;;5049981;28;20454;-68
2023/08/22 06:08:14;;;;;;;57.77;3.40;;;;;;;;;;5050241;28;20839;-68
2023/08/22 06:10:44;;;;;;;56.67;2.80;;;;;;;;;;5050100;28;20446;-68
2023/08/22 06:13:13;;;;;;;56.80;2.70;;;;;;;;;;5050416;28;20444;-67
2023/08/22 06:15:40;;;;;;;56.97;2.70;;;;;;;;;;5050024;28;20444;-68
2023/08/22 06:18:07;;;;;;;58.77;3.97;;;;;;;;;;5051536;28;20444;-67
2023/08/22 06:20:38;;;;;;;58.53;3.87;;;;;;;;;;5053666;28;20451;-67
2023/08/22 06:23:06;;;;;;;58.00;3.43;;;;;;;;;;5053683;28;20491;-67
2023/08/22 06:25:33;;;;;;;57.50;3.07;;;;;;;;;;5053527;28;20464;-67
2023/08/22 06:28:00;;;;;;;57.60;3.63;;;;;;;;;;5053327;28;20839;-67
2023/08/22 06:30:29;;;;;;;57.00;3.10;;;;;;;;;;5053655;28;20444;-67
2023/08/22 06:32:56;;;;;;;56.80;2.90;;;;;;;;;;5053234;28;20528;-67
2023/08/22 06:35:24;;;;;;;57.67;3.73;;;;;;;;;;5053065;28;20475;-67
2023/08/22 06:37:51;;;;;;;56.97;3.57;;;;;;;;;;5053333;28;20502;-68
2023/08/22 06:40:18;;;;;;;56.80;2.80;;;;;;;;;;5053116;28;20451;-67
2023/08/22 06:42:45;;;;;;;58.13;3.50;;;;;;;;;;5053049;28;20487;-67
2023/08/22 06:45:12;;;;;;;58.90;3.33;;;;;;;;;;5053138;28;20855;-68
2023/08/22 06:47:41;;;;;;;58.27;3.33;;;;;;;;;;5053139;28;20475;-67
2023/08/22 06:50:09;;;;;;;57.10;3.07;;;;;;;;;;5053043;28;20495;-68
2023/08/22 06:52:36;;;;;;;58.47;3.30;;;;;;;;;;5053110;28;20437;-68
2023/08/22 06:55:04;;;;;;;58.50;4.60;;;;;;;;;;5052792;28;20842;-67
2023/08/22 06:57:31;;;;;;;57.90;4.47;;;;;;;;;;5052972;28;20459;-67
2023/08/22 06:59:58;;;;;;;57.60;3.80;;;;;;;;;;5053054;28;20823;-68
2023/08/22 07:02:25;;;;;;;57.30;3.70;;;;;;;;;;5052561;28;20448;-67
2023/08/22 07:04:53;;;;;;;56.90;2.60;;;;;;;;;;5052932;28;20514;-67
2023/08/22 07:07:21;;;;;;;60.80;5.10;;;;;;;;;;5052584;28;20963;-67
2023/08/22 07:09:49;;;;;;;56.67;3.30;;;;;;;;;;5052527;28;20479;-67
2023/08/22 07:12:16;;;;;;;57.40;3.37;;;;;;;;;;5052599;28;20868;-68
2023/08/22 07:14:43;;;;;;;57.97;4.23;;;;;;;;;;5052944;28;20829;-68
2023/08/22 07:17:10;;;;;;;58.50;3.17;;;;;;;;;;5052587;28;20457;-67
2023/08/22 07:19:37;;;;;;;58.47;4.07;;;;;;;;;;5052750;28;20440;-67
2023/08/22 07:22:05;;;;;;;57.77;3.27;;;;;;;;;;5052133;28;20436;-68
2023/08/22 07:24:33;;;;;;;60.20;3.37;;;;;;;;;;5052190;28;20495;-67
2023/08/22 07:27:00;;;;;;;56.53;2.93;;;;;;;;;;5052185;28;20962;-68
2023/08/22 07:29:27;;;;;;;57.27;3.13;;;;;;;;;;5051767;28;20893;-68
2023/08/22 07:31:58;;;;;;;57.80;3.10;;;;;;;;;;5052036;28;20814;-68
2023/08/22 07:34:25;;;;;;;59.47;3.40;;;;;;;;;;5052160;28;20510;-68
2023/08/22 07:36:52;;;;;;;56.77;2.50;;;;;;;;;;5051922;28;20479;-68
2023/08/22 07:39:20;;;;;;;57.47;2.97;;;;;;;;;;5052327;28;20448;-68
2023/08/22 07:41:47;;;;;;;56.60;2.90;;;;;;;;;;5051919;28;20448;-68
2023/08/22 07:44:14;;;;;;;58.80;3.10;;;;;;;;;;5051985;28;20491;-68
2023/08/22 07:46:42;;;;;;;59.77;3.53;;;;;;;;;;5051935;28;20445;-68
2023/08/22 07:49:09;;;;;;;56.03;2.30;;;;;;;;;;5051759;28;20490;-69
2023/08/22 07:51:36;;;;;;;58.20;4.30;;;;;;;;;;5051703;28;20448;-69
2023/08/22 07:54:03;;;;;;;57.57;3.20;;;;;;;;;;5052053;28;20834;-69
2023/08/22 07:56:34;;;;;;;57.80;3.20;;;;;;;;;;5051854;28;20455;-70
2023/08/22 07:59:01;;;;;;;57.47;3.30;;;;;;;;;;5051834;28;20448;-70
2023/08/22 08:01:28;;;;;;;56.90;2.40;;;;;;;;;;5051844;28;20953;-70
2023/08/22 08:03:56;;;;;;;56.87;2.13;;;;;;;;;;5051128;28;20495;-70
2023/08/22 08:06:23;;;;;;;58.97;4.17;;;;;;;;;;5051721;28;20448;-70
2023/08/22 08:08:50;;;;;;;56.10;2.37;;;;;;;;;;5051643;28;20452;-70
2023/08/22 08:11:17;;;;;;;58.10;2.93;;;;;;;;;;5051386;28;20962;-70
2023/08/22 08:13:46;;;;;;;57.20;3.07;;;;;;;;;;5051160;28;20456;-70
2023/08/22 08:16:13;;;;;;;57.17;3.03;;;;;;;;;;5051267;28;20448;-70
2023/08/22 08:18:40;;;;;;;57.17;2.90;;;;;;;;;;5051639;28;20811;-70
2023/08/22 08:21:07;;;;;;;56.60;2.47;;;;;;;;;;5051542;28;20542;-71
2023/08/22 08:23:34;;;;;;;61.20;2.50;;;;;;;;;;5051086;28;20494;-71
2023/08/22 08:26:03;;;;;;;57.20;2.73;;;;;;;;;;5051271;28;20506;-71
2023/08/22 08:28:30;;;;;;;57.07;2.90;;;;;;;;;;5051275;28;20532;-71
2023/08/22 08:30:59;;;;;;;57.20;2.30;;;;;;;;;;5050980;28;20937;-71
2023/08/22 08:33:26;;;;;;;56.77;2.77;;;;;;;;;;5051039;28;20529;-71
2023/08/22 08:35:53;;;;;;;57.70;3.30;;;;;;;;;;5051026;28;20450;-71
2023/08/22 08:38:20;;;;;;;56.80;2.60;;;;;;;;;;5051094;28;20482;-71
2023/08/22 08:40:48;;;;;;;57.30;2.67;;;;;;;;;;5050290;28;20444;-71
2023/08/22 08:43:15;;;;;;;57.40;2.40;;;;;;;;;;5050476;28;20492;-71
2023/08/22 08:45:42;;;;;;;56.23;1.90;;;;;;;;;;5051307;28;20462;-69
2023/08/22 08:48:10;;;;;;;56.50;2.30;;;;;;;;;;5051150;28;20451;-68
2023/08/22 08:50:38;;;;;;;57.97;2.87;;;;;;;;;;5051070;28;20801;-69
2023/08/22 08:53:06;;;;;;;56.80;2.70;;;;;;;;;;5050713;28;20443;-69
2023/08/22 08:55:33;;;;;;;57.90;3.80;;;;;;;;;;5050661;28;20464;-69
2023/08/22 08:58:01;;;;;;;57.17;3.00;;;;;;;;;;5051155;28;20470;-69
2023/08/22 09:00:28;;;;;;;56.67;2.13;;;;;;;;;;5050995;28;20869;-70
2023/08/22 09:02:55;;;;;;;56.40;2.40;;;;;;;;;;5050567;28;20440;-69
2023/08/22 09:05:24;;;;;;;56.60;1.97;;;;;;;;;;5050533;28;20842;-70
2023/08/22 09:07:51;;;;;;;56.50;2.73;;;;;;;;;;5050672;28;20979;-70
2023/08/22 09:10:33;;;;;;;57.17;2.60;;;;;;;;;;5050843;28;20476;-70
2023/08/22 09:13:03;;;;;;;57.00;2.80;;;;;;;;;;5050401;28;20452;-70
2023/08/22 09:15:30;;;;;;;56.90;2.90;;;;;;;;;;5050564;28;20456;-70
2023/08/22 09:17:58;;;;;;;56.77;2.87;;;;;;;;;;5050713;28;20450;-70
2023/08/22 09:20:26;;;;;;;57.83;3.20;;;;;;;;;;5050579;28;20763;-70
2023/08/22 09:22:53;;;;;;;56.10;1.93;;;;;;;;;;5050261;28;20440;-70
2023/08/22 09:25:20;;;;;;;56.27;2.23;;;;;;;;;;5050288;28;20999;-70
2023/08/22 09:27:50;;;;;;;58.00;3.37;;;;;;;;;;5050865;28;20542;-70
2023/08/22 09:30:20;;;;;;;57.70;3.20;;;;;;;;;;5050665;28;20475;-70
2023/08/22 09:32:58;;;;;;;57.67;2.60;;;;;;;;;;5050337;28;20452;-70
2023/08/22 09:35:32;;;;;;;56.17;1.97;;;;;;;;;;5050198;28;20471;-70
2023/08/22 09:38:06;;;;;;;57.70;3.60;;;;;;;;;;5050420;28;20546;-70
2023/08/22 09:40:34;;;;;;;57.13;3.10;;;;;;;;;;5050565;28;20443;-70
2023/08/22 09:43:01;;;;;;;56.80;2.63;;;;;;;;;;5050038;28;20932;-70
2023/08/22 09:45:31;;;;;;;56.70;2.20;;;;;;;;;;5050244;28;20469;-70
2023/08/22 09:47:59;;;;;;;56.40;2.30;;;;;;;;;;5050210;28;20479;-70
2023/08/22 09:50:27;;;;;;;56.40;2.43;;;;;;;;;;5050508;28;20451;-70
2023/08/22 09:52:56;;;;;;;56.13;2.10;;;;;;;;;;5052827;28;20472;-70
2023/08/22 09:55:23;;;;;;;57.17;2.83;;;;;;;;;;5054099;28;20464;-70
2023/08/22 09:57:50;;;;;;;56.50;2.87;;;;;;;;;;5053902;28;20944;-70
2023/08/22 10:00:18;;;;;;;56.37;2.27;;;;;;;;;;5053960;28;20454;-70
2023/08/22 10:02:45;;;;;;;56.97;2.80;;;;;;;;;;5054153;28;20456;-70
2023/08/22 10:05:14;;;;;;;56.20;2.20;;;;;;;;;;5053915;28;20492;-71
2023/08/22 10:07:41;;;;;;;56.50;2.83;;;;;;;;;;5053874;28;20444;-70
2023/08/22 10:10:10;;;;;;;56.47;2.50;;;;;;;;;;5053822;28;20448;-71
2023/08/22 10:12:38;;;;;;;56.30;2.53;;;;;;;;;;5053487;28;20835;-70
2023/08/22 10:15:07;;;;;;;55.90;2.33;;;;;;;;;;5053380;28;20464;-70
2023/08/22 10:17:35;;;;;;;55.60;2.13;;;;;;;;;;5053696;28;20478;-71
2023/08/22 10:20:04;;;;;;;55.63;2.17;;;;;;;;;;5053904;28;20448;-71
2023/08/22 10:22:33;;;;;;;55.87;2.37;;;;;;;;;;5053379;28;20452;-71
2023/08/22 10:25:03;;;;;;;55.27;2.00;;;;;;;;;;5053418;28;20492;-71
2023/08/22 10:27:33;;;;;;;55.60;2.63;;;;;;;;;;5053219;28;20436;-70
2023/08/22 10:30:19;;;;;;;55.37;2.33;;;;;;;;;;5053541;28;20862;-70
2023/08/22 10:33:03;;;;;;;55.30;2.40;;;;;;;;;;5053301;28;20440;-70
2023/08/22 10:35:30;;;;;;;55.17;2.30;;;;;;;;;;5053218;28;20467;-71
2023/08/22 10:37:57;;;;;;;55.30;2.20;;;;;;;;;;5053007;28;20456;-70
2023/08/22 10:40:32;;;;;;;55.00;2.00;;;;;;;;;;5053382;28;20448;-71
2023/08/22 10:43:07;;;;;;;55.73;3.03;;;;;;;;;;5053056;28;20447;-71
2023/08/22 10:45:38;;;;;;;54.93;2.00;;;;;;;;;;5053079;28;20495;-70
2023/08/22 10:48:12;;;;;;;55.10;2.43;;;;;;;;;;5053224;28;20449;-70
2023/08/22 10:50:42;;;;;;;55.30;2.83;;;;;;;;;;5052884;28;20444;-72
2023/08/22 10:53:13;;;;;;;56.03;2.53;;;;;;;;;;5053109;28;20444;-70
2023/08/22 10:55:40;;;;;;;54.70;1.90;;;;;;;;;;5052997;28;20442;-71
2023/08/22 10:58:08;;;;;;;54.77;2.20;;;;;;;;;;5052646;28;20547;-71
2023/08/22 11:00:35;;;;;;;55.10;2.20;;;;;;;;;;5052808;28;20448;-71
2023/08/22 11:03:03;;;;;;;55.37;2.40;;;;;;;;;;5051846;28;20448;-71
2023/08/22 11:05:30;;;;;;;55.37;2.40;;;;;;;;;;5052495;28;20889;-70
2023/08/22 11:07:57;;;;;;;54.67;2.10;;;;;;;;;;5052959;28;20444;-70
2023/08/22 11:10:25;;;;;;;55.00;2.43;;;;;;;;;;5052885;28;20470;-70
2023/08/22 11:12:55;;;;;;;56.00;2.50;;;;;;;;;;5052235;28;20450;-71
2023/08/22 11:15:24;;;;;;;54.67;2.20;;;;;;;;;;5052326;28;20480;-70
2023/08/22 11:17:51;;;;;;;55.00;2.23;;;;;;;;;;5052563;28;20977;-71
2023/08/22 11:20:20;;;;;;;57.73;2.70;;;;;;;;;;5052609;28;20815;-71
2023/08/22 11:22:47;;;;;;;54.37;2.00;;;;;;;;;;5052251;28;20444;-71
2023/08/22 11:25:15;;;;;;;54.80;2.07;;;;;;;;;;5052282;28;20831;-71
2023/08/22 11:27:42;;;;;;;54.80;2.33;;;;;;;;;;5052220;28;20451;-70
2023/08/22 11:30:10;;;;;;;54.50;1.70;;;;;;;;;;5052196;28;20454;-70
2023/08/22 11:32:40;;;;;;;54.50;2.13;;;;;;;;;;5052105;28;20441;-70
2023/08/22 11:35:08;;;;;;;54.47;1.83;;;;;;;;;;5052023;28;20460;-70
2023/08/22 11:37:36;;;;;;;54.10;2.20;;;;;;;;;;5052119;28;20563;-70
2023/08/22 11:40:04;;;;;;;54.50;2.40;;;;;;;;;;5052119;28;20467;-70
2023/08/22 11:42:33;;;;;;;54.30;2.10;;;;;;;;;;5051674;28;20455;-70
2023/08/22 11:45:05;;;;;;;54.47;2.07;;;;;;;;;;5051996;28;20488;-70
2023/08/22 11:47:41;;;;;;;54.77;1.83;;;;;;;;;;5052046;28;20455;-70
2023/08/22 11:50:13;;;;;;;54.20;2.10;;;;;;;;;;5051824;28;20449;-71
2023/08/22 11:52:41;;;;;;;54.57;1.90;;;;;;;;;;5051701;28;20444;-71
2023/08/22 11:55:10;;;;;;;55.13;2.47;;;;;;;;;;5051561;28;20488;-69
2023/08/22 11:57:38;;;;;;;54.93;2.13;;;;;;;;;;5051827;28;20452;-69
2023/08/22 12:00:07;;;;;;;55.20;1.87;;;;;;;;;;5051772;28;20455;-70
2023/08/22 12:02:34;;;;;;;55.33;1.90;;;;;;;;;;5051655;28;20448;-70
2023/08/22 12:05:02;;;;;;;56.03;2.30;;;;;;;;;;5051503;28;20492;-71
2023/08/22 12:07:29;;;;;;;55.43;2.20;;;;;;;;;;5051414;28;20448;-70
2023/08/22 12:10:00;;;;;;;54.90;2.10;;;;;;;;;;5051748;28;20448;-70
2023/08/22 12:12:27;;;;;;;55.30;2.27;;;;;;;;;;5051728;28;20448;-70
2023/08/22 12:14:54;;;;;;;54.70;2.20;;;;;;;;;;5051416;28;20464;-70
2023/08/22 12:17:21;;;;;;;54.87;2.10;;;;;;;;;;5051426;28;20824;-70
2023/08/22 12:19:48;;;;;;;57.17;2.87;;;;;;;;;;5051402;28;20458;-70
2023/08/22 12:22:17;;;;;;;54.83;2.30;;;;;;;;;;5050921;28;20539;-70
2023/08/22 12:24:45;;;;;;;54.30;2.23;;;;;;;;;;5051275;28;20492;-69
2023/08/22 12:27:12;;;;;;;54.17;2.27;;;;;;;;;;5051268;28;20448;-69
2023/08/22 12:29:39;;;;;;;54.80;2.67;;;;;;;;;;5051266;28;20448;-70
2023/08/22 12:32:07;;;;;;;53.67;2.23;;;;;;;;;;5050897;28;20944;-70
2023/08/22 12:34:34;;;;;;;54.50;2.00;;;;;;;;;;5050782;28;20499;-70
2023/08/22 12:37:01;;;;;;;55.23;2.43;;;;;;;;;;5051151;28;20460;-70
2023/08/22 12:39:29;;;;;;;54.70;2.53;;;;;;;;;;5051257;28;20451;-70
2023/08/22 12:41:56;;;;;;;54.50;1.90;;;;;;;;;;5051116;28;20456;-70
2023/08/22 12:44:25;;;;;;;54.70;2.43;;;;;;;;;;5050879;28;20468;-70
2023/08/22 12:46:54;;;;;;;58.50;2.90;;;;;;;;;;5051317;28;20447;-70
2023/08/22 12:49:21;;;;;;;54.33;2.27;;;;;;;;;;5050744;28;20474;-69
2023/08/22 12:51:48;;;;;;;54.13;2.10;;;;;;;;;;5050775;28;20447;-69
2023/08/22 12:54:15;;;;;;;54.67;2.57;;;;;;;;;;5050795;28;20899;-69
2023/08/22 12:56:44;;;;;;;54.47;1.90;;;;;;;;;;5050796;28;20452;-69
2023/08/22 12:59:11;;;;;;;54.37;2.10;;;;;;;;;;5050831;28;20885;-69
2023/08/22 13:01:38;;;;;;;55.53;2.00;;;;;;;;;;5050635;28;20475;-70
2023/08/22 13:04:12;;;;;;;54.60;1.90;;;;;;;;;;5050826;28;20467;-70
2023/08/22 13:06:39;;;;;;;54.90;2.60;;;;;;;;;;5050964;28;20455;-70
2023/08/22 13:09:10;;;;;;;55.77;2.10;;;;;;;;;;5050886;28;20448;-70
2023/08/22 13:11:37;;;;;;;54.40;2.37;;;;;;;;;;5050620;28;20535;-70
2023/08/22 13:14:06;;;;;;;54.67;2.03;;;;;;;;;;5050428;28;20475;-70
2023/08/22 13:16:33;;;;;;;55.00;2.53;;;;;;;;;;5050557;28;20488;-69
2023/08/22 13:19:00;;;;;;;54.90;2.50;;;;;;;;;;5050790;28;20455;-69
2023/08/22 13:21:27;;;;;;;54.70;2.00;;;;;;;;;;5050783;28;20440;-70
2023/08/22 13:23:54;;;;;;;54.90;2.40;;;;;;;;;;5050396;28;20852;-70
2023/08/22 13:26:22;;;;;;;54.40;2.10;;;;;;;;;;5050629;28;20990;-70
2023/08/22 13:28:50;;;;;;;54.77;1.93;;;;;;;;;;5054475;28;20443;-70
2023/08/22 13:31:20;;;;;;;54.33;2.30;;;;;;;;;;5054843;28;20812;-70
2023/08/22 13:33:47;;;;;;;56.70;2.57;;;;;;;;;;5054190;28;20988;-70
2023/08/22 13:36:14;;;;;;;54.50;1.90;;;;;;;;;;5054570;28;20491;-70
2023/08/22 13:38:41;;;;;;;54.50;2.03;;;;;;;;;;5054280;28;20827;-71
2023/08/22 13:41:08;;;;;;;54.60;2.37;;;;;;;;;;5054361;28;20496;-70
2023/08/22 13:43:38;;;;;;;54.43;2.70;;;;;;;;;;5053896;28;20481;-70
2023/08/22 13:46:06;;;;;;;54.87;2.57;;;;;;;;;;5054375;28;20781;-70
2023/08/22 13:48:35;;;;;;;54.40;1.97;;;;;;;;;;5054284;28;20450;-70
2023/08/22 13:51:02;;;;;;;54.20;1.90;;;;;;;;;;5054208;28;20543;-70
2023/08/22 13:53:31;;;;;;;54.90;2.47;;;;;;;;;;5053888;28;20448;-70
2023/08/22 13:55:58;;;;;;;54.10;1.97;;;;;;;;;;5053933;28;20480;-70
2023/08/22 13:58:25;;;;;;;54.50;2.10;;;;;;;;;;5053953;28;20448;-70
2023/08/22 14:00:52;;;;;;;54.70;2.73;;;;;;;;;;5054114;28;20451;-70
2023/08/22 14:03:19;;;;;;;54.67;2.10;;;;;;;;;;5053739;28;20982;-70
2023/08/22 14:05:47;;;;;;;55.00;2.47;;;;;;;;;;5054031;28;20440;-70
2023/08/22 14:08:14;;;;;;;54.60;2.07;;;;;;;;;;5053973;28;20539;-70
2023/08/22 14:10:42;;;;;;;54.10;1.90;;;;;;;;;;5053776;28;20562;-70
2023/08/22 14:13:09;;;;;;;54.30;1.83;;;;;;;;;;5053858;28;20523;-71
2023/08/22 14:15:36;;;;;;;53.80;1.70;;;;;;;;;;5053825;28;20980;-70
2023/08/22 14:18:03;;;;;;;54.70;2.47;;;;;;;;;;5053880;28;20535;-70
2023/08/22 14:20:30;;;;;;;54.47;1.90;;;;;;;;;;5053714;28;20450;-70
2023/08/22 14:22:58;;;;;;;54.90;2.07;;;;;;;;;;5053168;28;20928;-70
2023/08/22 14:25:25;;;;;;;54.90;2.20;;;;;;;;;;5053754;28;20456;-70
2023/08/22 14:27:54;;;;;;;54.53;2.23;;;;;;;;;;5053704;28;20447;-70
2023/08/22 14:30:21;;;;;;;54.17;1.93;;;;;;;;;;5053664;28;20452;-70
2023/08/22 14:32:48;;;;;;;54.97;1.70;;;;;;;;;;5053253;28;20811;-70
2023/08/22 14:35:15;;;;;;;55.00;1.87;;;;;;;;;;5053138;28;20488;-71